Ten'yo — JBBC — position and weather

sailwx.info

Track history (hours):
 
Tides and Currents Weather Stations Pressure Air Temp Water Temp Dewpoint Dewpoint Depression Visibility Wind Speed Wind Dir Waves Ship Positions

Oceanographic research ship Ten'yo (Japan)

Detailed information on ship capabilities available from University of Delaware's Ocean Information Center.

Last reported at 2015-May-20 14:12 UTC. Time now 2015-May-30 10:30 UTC.
Position N 35°39' E 141°29'.
Warning: this ship's position is 9 days out of date.

Length 56 m; draft 3.6 m.

Type: Other ship. MMSI: 431100350.

Date/timePositionNaut miles runAvg speedWind from/ knotsBaromVisibWave heightAir tempDewpointWater temp
2015-May-20 14:12N 35°39' E 141°29'913.4
2015-May-20 13:33N 35°35' E 141°19'1513.0
2015-May-20 12:25N 35°28' E 141°03'4912.5
2015-May-20 08:30N 34°60' E 140°14'1611.0
2015-May-20 07:04N 34°51' E 139°58'19 7.8
2015-May-20 04:33N 35°07' E 139°45'1110.9
2015-May-20 03:33N 35°18' E 139°44'10 9.7
2015-May-20 02:34N 35°28' E 139°46'9 8.8
2015-May-20 01:34N 35°36' E 139°46'2 1.6
2015-May-20 00:32N 35°38' E 139°47'  
2015-May-17 05:18N 35°38' E 139°47'0 0.0
2015-May-17 02:23N 35°38' E 139°47'  
2015-May-14 09:23N 35°38' E 139°47'0 0.0
2015-May-14 08:17N 35°38' E 139°47'0 0.0
2015-May-14 07:20N 35°38' E 139°47'0 0.0
2015-May-14 06:31N 35°38' E 139°47'0 0.0
2015-May-14 05:28N 35°38' E 139°47'0 0.0
2015-May-14 04:25N 35°38' E 139°47'0 0.0
2015-May-14 03:31N 35°38' E 139°47'0 0.0
2015-May-14 02:22N 35°38' E 139°47'0 0.0
2015-May-14 01:31N 35°38' E 139°47'  
Track history (hours):
 
Tides and Currents Weather Stations Pressure Air Temp Water Temp Dewpoint Dewpoint Depression Visibility Wind Speed Wind Dir Waves Ship Positions

Oceanographic research ship Ten'yo (Japan)

Detailed information on ship capabilities available from University of Delaware's Ocean Information Center.

Last reported at 2015-May-20 14:12 UTC. Time now 2015-May-30 10:30 UTC.
Position N 35°39' E 141°29'.
Warning: this ship's position is 9 days out of date.

Length 56 m; draft 3.6 m.

Type: Other ship. MMSI: 431100350.

Date/timePositionNaut miles runAvg speedWind from/ knotsBaromVisibWave heightAir tempDewpointWater temp
2015-May-20 14:12N 35°39' E 141°29'913.4
2015-May-20 13:33N 35°35' E 141°19'1513.0
2015-May-20 12:25N 35°28' E 141°03'4912.5
2015-May-20 08:30N 34°60' E 140°14'1611.0
2015-May-20 07:04N 34°51' E 139°58'19 7.8
2015-May-20 04:33N 35°07' E 139°45'1110.9
2015-May-20 03:33N 35°18' E 139°44'10 9.7
2015-May-20 02:34N 35°28' E 139°46'9 8.8
2015-May-20 01:34N 35°36' E 139°46'2 1.6
2015-May-20 00:32N 35°38' E 139°47'  
2015-May-17 05:18N 35°38' E 139°47'0 0.0
2015-May-17 02:23N 35°38' E 139°47'  
2015-May-14 09:23N 35°38' E 139°47'0 0.0
2015-May-14 08:17N 35°38' E 139°47'0 0.0
2015-May-14 07:20N 35°38' E 139°47'0 0.0
2015-May-14 06:31N 35°38' E 139°47'0 0.0
2015-May-14 05:28N 35°38' E 139°47'0 0.0
2015-May-14 04:25N 35°38' E 139°47'0 0.0
2015-May-14 03:31N 35°38' E 139°47'0 0.0
2015-May-14 02:22N 35°38' E 139°47'0 0.0
2015-May-14 01:31N 35°38' E 139°47'  

Dump ship's entire track history